Terminal Aerodrome Forecast
Issued by NWS

Home | Current Version | Previous Version | Text Only | Print | Product List | Glossary On
Versions: 1 2 3 4 5 6 7 8 9 10 11 12 13 14 15 16 17 18 19
000
FTUS43 KDTX 021100
TAFDET
TAF
KDET 021125Z 0212/0312 00000KT 1/2SM FG VV002
     FM021300 VRB03KT 2SM BR SCT006
     FM021400 16003KT 5SM BR BKN100
     FM021500 15008KT P6SM BKN060 OVC120
      TEMPO 0222/0302 6SM -SHRA OVC050
     FM030700 17010KT P6SM SCT040 OVC060=

USA.gov is the U.S. government's official web portal to all federal, state and local government web resources and services.